createdAt,value
2024-01-20T00:00:42.063Z,0.03
2024-01-20T00:01:42.062Z,0.03
2024-01-20T00:02:42.060Z,0.01
2024-01-20T00:03:42.059Z,0.04
2024-01-20T00:04:42.070Z,0.04
2024-01-20T00:05:42.025Z,0.01
2024-01-20T00:06:44.645Z,-0.01
2024-01-20T00:07:42.731Z,0.00
2024-01-20T00:08:41.976Z,0.01
2024-01-20T00:09:49.855Z,0.01
2024-01-20T00:10:42.042Z,0.01
2024-01-20T00:11:41.953Z,0.06
2024-01-20T00:12:41.917Z,0.04
2024-01-20T00:13:41.952Z,0.07
2024-01-20T00:14:41.904Z,0.07
2024-01-20T00:15:41.908Z,0.09
2024-01-20T00:16:41.907Z,0.12
2024-01-20T00:17:42.490Z,0.09
2024-01-20T00:18:41.894Z,0.14
2024-01-20T00:19:41.907Z,0.09
2024-01-20T00:20:41.940Z,0.09
2024-01-20T00:21:41.844Z,0.15
2024-01-20T00:22:41.882Z,0.15
2024-01-20T00:23:41.829Z,0.15
2024-01-20T00:24:41.832Z,0.18
2024-01-20T00:25:41.827Z,0.21
2024-01-20T00:26:41.780Z,0.18
2024-01-20T00:27:41.767Z,0.15
2024-01-20T00:28:42.745Z,0.19
2024-01-20T00:29:41.801Z,0.22
2024-01-20T00:30:41.738Z,0.22
2024-01-20T00:31:41.780Z,0.19
2024-01-20T00:32:41.864Z,0.21
2024-01-20T00:33:41.800Z,0.21
2024-01-20T00:34:51.638Z,0.21
2024-01-20T00:35:41.763Z,0.21
2024-01-20T00:36:41.672Z,0.24
2024-01-20T00:37:41.700Z,0.24
2024-01-20T00:38:41.650Z,0.27
2024-01-20T00:39:41.696Z,0.28
2024-01-20T00:40:41.698Z,0.29
2024-01-20T00:41:41.638Z,0.32
2024-01-20T00:42:41.622Z,0.33
2024-01-20T00:43:41.633Z,0.33
2024-01-20T00:44:41.588Z,0.32
2024-01-20T00:45:41.591Z,0.35
2024-01-20T00:46:41.652Z,0.35
2024-01-20T00:47:41.625Z,0.35
2024-01-20T00:48:41.598Z,0.35
2024-01-20T00:49:41.660Z,0.33
2024-01-20T00:50:41.529Z,0.36
2024-01-20T00:51:41.534Z,0.35
2024-01-20T00:52:41.587Z,0.33
2024-01-20T00:53:41.515Z,0.36
2024-01-20T00:54:41.477Z,0.39
2024-01-20T00:55:41.593Z,0.37
2024-01-20T00:56:41.469Z,0.40
2024-01-20T00:57:41.463Z,0.43
2024-01-20T00:58:41.561Z,0.45
2024-01-20T00:59:41.448Z,0.47
2024-01-20T01:00:41.493Z,0.50
2024-01-20T01:01:41.447Z,0.53
2024-01-20T01:02:41.452Z,0.55
2024-01-20T01:03:41.456Z,0.55
2024-01-20T01:04:41.444Z,0.58
2024-01-20T01:05:41.378Z,0.59
2024-01-20T01:06:41.394Z,0.62
2024-01-20T01:07:41.412Z,0.62
2024-01-20T01:08:41.345Z,0.62
2024-01-20T01:09:41.436Z,0.64
2024-01-20T01:10:41.390Z,0.62
2024-01-20T01:11:41.343Z,0.59
2024-01-20T01:12:41.346Z,0.59
2024-01-20T01:13:41.315Z,0.58
2024-01-20T01:14:41.297Z,0.56
2024-01-20T01:15:41.277Z,0.55
2024-01-20T01:16:41.312Z,0.53
2024-01-20T01:17:41.294Z,0.53
2024-01-20T01:18:41.248Z,0.53
2024-01-20T01:19:41.287Z,0.53
2024-01-20T01:20:41.226Z,0.53
2024-01-20T01:21:41.263Z,0.55
2024-01-20T01:22:41.233Z,0.56
2024-01-20T01:23:41.204Z,0.55
2024-01-20T01:24:41.191Z,0.51
2024-01-20T01:25:41.219Z,0.51
2024-01-20T01:26:41.295Z,0.50
2024-01-20T01:27:41.168Z,0.47
2024-01-20T01:28:41.185Z,0.47
2024-01-20T01:29:41.187Z,0.46
2024-01-20T01:30:41.152Z,0.46
2024-01-20T01:31:41.229Z,0.50
2024-01-20T01:32:41.154Z,0.47
2024-01-20T01:33:41.187Z,0.51
2024-01-20T01:34:41.142Z,0.51
2024-01-20T01:35:41.078Z,0.53
2024-01-20T01:36:41.073Z,0.53
2024-01-20T01:37:41.116Z,0.55
2024-01-20T01:38:41.047Z,0.51
2024-01-20T01:39:41.053Z,0.47
2024-01-20T01:40:41.042Z,0.47
2024-01-20T01:41:41.010Z,0.51
2024-01-20T01:42:41.000Z,0.47
2024-01-20T01:43:41.025Z,0.47
2024-01-20T01:44:40.986Z,0.47
2024-01-20T01:45:40.954Z,0.50
2024-01-20T01:46:41.074Z,0.50
2024-01-20T01:47:41.021Z,0.47
2024-01-20T01:48:41.018Z,0.50
2024-01-20T01:50:41.053Z,0.47
2024-01-20T01:51:40.912Z,0.50
2024-01-20T01:52:40.901Z,0.47
2024-01-20T01:53:40.873Z,0.46
2024-01-20T01:54:40.879Z,0.45
2024-01-20T01:55:40.850Z,0.50
2024-01-20T01:56:40.911Z,0.50
2024-01-20T01:57:40.864Z,0.50
2024-01-20T01:58:40.846Z,0.51
2024-01-20T01:59:40.823Z,0.51
2024-01-20T02:00:40.923Z,0.51
2024-01-20T02:01:40.836Z,0.47
2024-01-20T02:02:40.788Z,0.50
2024-01-20T02:03:40.806Z,0.46
2024-01-20T02:04:40.788Z,0.46
2024-01-20T02:05:40.744Z,0.47
2024-01-20T02:06:40.790Z,0.45
2024-01-20T02:07:40.764Z,0.46
2024-01-20T02:08:41.145Z,0.46
2024-01-20T02:09:40.712Z,0.46
2024-01-20T02:10:40.708Z,0.45
2024-01-20T02:11:40.683Z,0.46
2024-01-20T02:12:40.682Z,0.46
2024-01-20T02:13:40.694Z,0.45
2024-01-20T02:14:40.655Z,0.45
2024-01-20T02:15:40.707Z,0.45
2024-01-20T02:16:40.628Z,0.43
2024-01-20T02:17:40.684Z,0.42
2024-01-20T02:18:40.741Z,0.40
2024-01-20T02:19:40.674Z,0.39
2024-01-20T02:20:40.599Z,0.40
2024-01-20T02:21:40.581Z,0.40
2024-01-20T02:22:40.574Z,0.43
2024-01-20T02:23:40.568Z,0.43
2024-01-20T02:24:40.564Z,0.45
2024-01-20T02:25:40.542Z,0.45
2024-01-20T02:26:40.572Z,0.45
2024-01-20T02:27:40.533Z,0.47
2024-01-20T02:28:40.515Z,0.47
2024-01-20T02:29:40.517Z,0.47
2024-01-20T02:30:40.527Z,0.46
2024-01-20T02:31:40.478Z,0.50
2024-01-20T02:32:40.844Z,0.51
2024-01-20T02:33:40.578Z,0.51
2024-01-20T02:34:40.488Z,0.50
2024-01-20T02:35:40.452Z,0.53
2024-01-20T02:36:40.420Z,0.51
2024-01-20T02:39:03.440Z,0.56
2024-01-20T02:40:04.285Z,0.56
2024-01-20T02:41:04.304Z,0.56
2024-01-20T02:42:04.292Z,0.56
2024-01-20T02:43:04.239Z,0.56
2024-01-20T02:44:04.254Z,0.58
2024-01-20T02:45:04.258Z,0.56
2024-01-20T02:46:04.214Z,0.56
2024-01-20T02:47:04.208Z,0.58
2024-01-20T02:48:04.309Z,0.56
2024-01-20T02:49:04.321Z,0.58
2024-01-20T02:50:04.280Z,0.59
2024-01-20T02:51:04.195Z,0.61
2024-01-20T02:52:04.152Z,0.59
2024-01-20T02:53:04.137Z,0.64
2024-01-20T02:54:04.221Z,0.62
2024-01-20T02:55:04.111Z,0.64
2024-01-20T02:56:04.128Z,0.62
2024-01-20T02:57:04.120Z,0.65
2024-01-20T02:58:04.107Z,0.68
2024-01-20T02:59:04.078Z,0.68
2024-01-20T03:00:04.105Z,0.68
2024-01-20T03:01:04.129Z,0.70
2024-01-20T03:02:04.051Z,0.72
2024-01-20T03:03:04.120Z,0.68
2024-01-20T03:04:04.261Z,0.70
2024-01-20T03:05:04.051Z,0.70
2024-01-20T03:06:04.110Z,0.72
2024-01-20T03:07:04.002Z,0.70
2024-01-20T03:08:03.982Z,0.66
2024-01-20T03:09:04.056Z,0.65
2024-01-20T03:10:03.978Z,0.65
2024-01-20T03:11:03.941Z,0.65
2024-01-20T03:12:03.979Z,0.66
2024-01-20T03:13:03.930Z,0.66
2024-01-20T03:14:03.934Z,0.65
2024-01-20T03:15:03.984Z,0.66
2024-01-20T03:16:03.905Z,0.68
2024-01-20T03:17:03.935Z,0.72
2024-01-20T03:18:03.981Z,0.73
2024-01-20T03:19:03.961Z,0.74
2024-01-20T03:20:03.923Z,0.73
2024-01-20T03:21:03.907Z,0.72
2024-01-20T03:22:03.833Z,0.73
2024-01-20T03:23:03.828Z,0.73
2024-01-20T03:24:03.930Z,0.70
2024-01-20T03:25:13.048Z,0.74
2024-01-20T03:26:04.187Z,0.74
2024-01-20T03:27:04.337Z,0.76
2024-01-20T03:28:04.152Z,0.76
2024-01-20T03:29:04.212Z,0.79
2024-01-20T03:30:04.352Z,0.76
2024-01-20T03:31:04.103Z,0.77
2024-01-20T03:32:04.290Z,0.77
2024-01-20T03:33:11.916Z,0.77
2024-01-20T03:34:11.075Z,0.79
2024-01-20T03:35:04.472Z,0.79
2024-01-20T03:36:04.495Z,0.79
2024-01-20T03:37:04.354Z,0.76
2024-01-20T03:38:04.447Z,0.77
2024-01-20T03:39:04.142Z,0.74
2024-01-20T03:41:15.941Z,0.79
2024-01-20T03:43:26.538Z,0.82
2024-01-20T03:44:27.165Z,0.79
2024-01-20T03:47:05.262Z,0.82
2024-01-20T03:48:12.790Z,0.80
2024-01-20T03:50:17.632Z,0.88
2024-01-20T03:51:18.438Z,0.90
2024-01-20T03:52:18.324Z,0.86
2024-01-20T03:53:18.385Z,0.91
2024-01-20T03:54:18.336Z,0.91
2024-01-20T03:55:18.126Z,0.91
2024-01-20T03:56:18.252Z,0.90
2024-01-20T03:57:18.232Z,0.90
2024-01-20T03:58:26.280Z,0.90
2024-01-20T03:59:18.197Z,0.90
2024-01-20T04:00:26.270Z,0.91
2024-01-20T04:01:18.061Z,0.92
2024-01-20T04:02:18.132Z,0.94
2024-01-20T04:03:26.098Z,0.92
2024-01-20T04:04:18.055Z,0.95
2024-01-20T04:05:27.001Z,0.94
2024-01-20T04:06:18.108Z,0.95
2024-01-20T04:07:18.048Z,0.97
2024-01-20T04:08:18.520Z,0.95
2024-01-20T04:10:29.462Z,1.00
2024-01-20T04:11:30.730Z,1.00
2024-01-20T04:12:30.196Z,1.00
2024-01-20T04:13:30.445Z,1.01
2024-01-20T04:14:30.356Z,1.04
2024-01-20T04:16:41.470Z,1.05
2024-01-20T04:17:42.432Z,1.05
2024-01-20T04:19:53.569Z,1.09
2024-01-20T04:22:07.546Z,1.12
2024-01-20T04:23:05.726Z,1.09
2024-01-20T04:24:05.706Z,1.08
2024-01-20T04:25:05.323Z,1.08
2024-01-20T04:26:05.985Z,1.09
2024-01-20T04:27:05.418Z,1.09
2024-01-20T04:28:05.608Z,1.05
2024-01-20T04:29:05.760Z,1.05
2024-01-20T04:30:05.687Z,1.05
2024-01-20T04:31:05.623Z,1.02
2024-01-20T04:32:05.670Z,1.04
2024-01-20T04:33:05.804Z,1.01
2024-01-20T04:34:06.316Z,1.00
2024-01-20T04:35:12.214Z,0.97
2024-01-20T04:36:05.343Z,0.94
2024-01-20T04:37:05.564Z,0.91
2024-01-20T04:38:05.907Z,0.91
2024-01-20T04:40:15.507Z,0.95
2024-01-20T04:41:16.411Z,0.90
2024-01-20T04:42:23.103Z,0.91
2024-01-20T04:43:16.263Z,0.90
2024-01-20T04:44:16.291Z,0.86
2024-01-20T04:45:16.303Z,0.88
2024-01-20T04:46:16.232Z,0.84
2024-01-20T04:47:16.280Z,0.84
2024-01-20T04:49:36.948Z,0.86
2024-01-20T04:51:48.074Z,0.79
2024-01-20T04:52:56.757Z,0.79
2024-01-20T04:53:48.867Z,0.74
2024-01-20T04:54:48.954Z,0.74
2024-01-20T04:55:56.861Z,0.73
2024-01-20T04:56:48.716Z,0.72
2024-01-20T04:57:48.565Z,0.73
2024-01-20T04:58:57.701Z,0.73
2024-01-20T04:59:48.511Z,0.72
2024-01-20T05:00:48.552Z,0.70
2024-01-20T05:01:48.757Z,0.72
2024-01-20T05:02:48.407Z,0.72
2024-01-20T05:03:48.753Z,0.68
2024-01-20T05:04:48.491Z,0.72
2024-01-20T05:05:48.650Z,0.70
2024-01-20T05:06:48.765Z,0.70
2024-01-20T05:07:48.706Z,0.66
2024-01-20T05:09:59.022Z,0.70
2024-01-20T05:10:59.469Z,0.70
2024-01-20T05:12:07.340Z,0.68
2024-01-20T05:13:00.101Z,0.70
2024-01-20T05:15:10.269Z,0.73
2024-01-20T05:17:30.953Z,0.76
2024-01-20T05:18:31.127Z,0.72
2024-01-20T05:19:31.209Z,0.73
2024-01-20T05:20:31.217Z,0.74
2024-01-20T05:21:31.032Z,0.74
2024-01-20T05:23:50.476Z,0.74
2024-01-20T05:24:50.632Z,0.77
2024-01-20T05:25:50.916Z,0.79
2024-01-20T05:26:50.855Z,0.79
2024-01-20T05:27:50.947Z,0.82
2024-01-20T05:28:50.702Z,0.83
2024-01-20T05:29:50.652Z,0.84
2024-01-20T05:30:50.668Z,0.86
2024-01-20T05:31:50.612Z,0.91
2024-01-20T05:32:51.069Z,0.92
2024-01-20T05:33:50.944Z,0.92
2024-01-20T05:34:50.380Z,0.97
2024-01-20T05:35:50.691Z,0.97
2024-01-20T05:36:50.356Z,0.97
2024-01-20T05:37:50.478Z,0.98
2024-01-20T05:38:50.401Z,0.98
2024-01-20T05:39:50.408Z,0.97
2024-01-20T05:40:50.542Z,0.95
2024-01-20T05:41:50.377Z,0.95
2024-01-20T05:42:50.304Z,0.97
2024-01-20T05:43:50.302Z,1.00
2024-01-20T05:44:50.461Z,1.01
2024-01-20T05:45:58.280Z,1.04
2024-01-20T05:46:57.155Z,1.08
2024-01-20T05:47:50.354Z,1.09
2024-01-20T05:48:50.388Z,1.08
2024-01-20T05:49:50.335Z,1.09
2024-01-20T05:50:50.316Z,1.10
2024-01-20T05:51:50.334Z,1.12
2024-01-20T05:52:50.277Z,1.10
2024-01-20T05:53:50.442Z,1.09
2024-01-20T05:54:50.557Z,1.08
2024-01-20T05:55:50.279Z,1.05
2024-01-20T05:56:50.387Z,1.10
2024-01-20T05:57:57.133Z,1.10
2024-01-20T05:58:50.272Z,1.15
2024-01-20T05:59:50.235Z,1.19
2024-01-20T06:00:50.240Z,1.19
2024-01-20T06:01:50.240Z,1.22
2024-01-20T06:02:57.003Z,1.23
2024-01-20T06:03:50.309Z,1.19
2024-01-20T06:04:50.205Z,1.19
2024-01-20T06:05:50.143Z,1.18
2024-01-20T06:06:50.188Z,1.18
2024-01-20T06:07:50.172Z,1.16
2024-01-20T06:08:50.177Z,1.13
2024-01-20T06:09:50.143Z,1.13
2024-01-20T06:10:50.274Z,1.10
2024-01-20T06:11:50.024Z,1.08
2024-01-20T06:12:50.265Z,1.09
2024-01-20T06:13:50.269Z,1.08
2024-01-20T06:14:50.118Z,1.01
2024-01-20T06:15:50.402Z,1.01
2024-01-20T06:16:50.250Z,1.01
2024-01-20T06:17:50.215Z,1.00
2024-01-20T06:18:58.503Z,0.98
2024-01-20T06:21:01.929Z,0.97
2024-01-20T06:22:02.688Z,0.98
2024-01-20T06:23:02.730Z,0.94
2024-01-20T06:24:02.282Z,0.90
2024-01-20T06:25:02.154Z,0.86
2024-01-20T06:26:02.564Z,0.84
2024-01-20T06:27:02.855Z,0.83
2024-01-20T06:28:02.392Z,0.80
2024-01-20T06:29:12.187Z,0.77
2024-01-20T06:30:02.450Z,0.77
2024-01-20T06:32:14.149Z,0.77
2024-01-20T06:34:26.930Z,0.77
2024-01-20T06:36:37.959Z,0.76
2024-01-20T06:37:39.073Z,0.74
2024-01-20T06:38:39.070Z,0.73
2024-01-20T06:39:39.210Z,0.73
2024-01-20T06:40:38.932Z,0.74
2024-01-20T06:41:38.995Z,0.74
2024-01-20T06:42:39.012Z,0.74
2024-01-20T06:43:38.965Z,0.74
2024-01-20T06:44:38.852Z,0.73
2024-01-20T06:45:39.174Z,0.73
2024-01-20T06:46:38.781Z,0.70
2024-01-20T06:47:39.057Z,0.70
2024-01-20T06:48:47.840Z,0.68
2024-01-20T06:49:39.150Z,0.70
2024-01-20T06:51:58.054Z,0.72
2024-01-20T06:52:58.331Z,0.73
2024-01-20T06:53:58.963Z,0.74
2024-01-20T06:56:16.282Z,0.72
2024-01-20T06:57:17.667Z,0.73
2024-01-20T06:58:17.245Z,0.74
2024-01-20T06:59:17.677Z,0.73
2024-01-20T07:00:17.260Z,0.79
2024-01-20T07:02:28.299Z,0.80
2024-01-20T07:03:37.934Z,0.82
2024-01-20T07:04:29.399Z,0.82
2024-01-20T07:06:41.628Z,0.80
2024-01-20T07:07:42.591Z,0.77
2024-01-20T07:08:42.320Z,0.79
2024-01-20T07:09:42.240Z,0.80
2024-01-20T07:11:53.693Z,0.79
2024-01-20T07:12:54.493Z,0.79
2024-01-20T07:15:05.808Z,0.77
2024-01-20T07:16:07.744Z,0.80
2024-01-20T07:17:15.489Z,0.80
2024-01-20T07:18:14.595Z,0.80
2024-01-20T07:19:16.536Z,0.82
2024-01-20T07:21:17.828Z,0.86
2024-01-20T07:23:37.827Z,0.90
2024-01-20T07:24:38.753Z,0.90
2024-01-20T07:25:47.465Z,0.90
2024-01-20T07:26:38.294Z,0.91
2024-01-20T07:27:38.308Z,0.91
2024-01-20T07:28:45.940Z,0.94
2024-01-20T07:29:39.081Z,0.95
2024-01-20T07:30:38.583Z,1.01
2024-01-20T07:31:38.839Z,1.05
2024-01-20T07:32:38.244Z,1.08
2024-01-20T07:33:46.401Z,1.12
2024-01-20T07:34:38.393Z,1.12
2024-01-20T07:35:38.364Z,1.16
2024-01-20T07:36:47.188Z,1.18
2024-01-20T07:37:38.483Z,1.22
2024-01-20T07:39:58.350Z,1.23
2024-01-20T07:40:59.097Z,1.23
2024-01-20T07:41:59.248Z,1.26
2024-01-20T07:42:59.003Z,1.27
2024-01-20T07:44:50.915Z,1.27
2024-01-20T07:47:02.027Z,1.36
2024-01-20T07:48:02.906Z,1.37
2024-01-20T07:50:14.674Z,1.44
2024-01-20T07:51:22.423Z,1.44
2024-01-20T07:52:14.721Z,1.44
2024-01-20T07:53:15.313Z,1.45
2024-01-20T07:54:15.042Z,1.45
2024-01-20T07:55:14.735Z,1.45
2024-01-20T07:56:15.021Z,1.47
2024-01-20T07:57:26.361Z,1.44
2024-01-20T07:58:14.413Z,1.41
2024-01-20T07:59:14.620Z,1.44
2024-01-20T08:00:15.031Z,1.44
2024-01-20T08:01:21.371Z,1.41
2024-01-20T08:02:22.788Z,1.44
2024-01-20T08:03:14.682Z,1.44
2024-01-20T08:05:32.013Z,1.47
2024-01-20T08:06:31.418Z,1.45
2024-01-20T08:07:31.381Z,1.49
2024-01-20T08:08:31.416Z,1.48
2024-01-20T08:09:31.331Z,1.47
2024-01-20T08:10:31.157Z,1.45
2024-01-20T08:11:31.378Z,1.47
2024-01-20T08:12:31.525Z,1.47
2024-01-20T08:14:41.142Z,1.49
2024-01-20T08:15:42.261Z,1.49
2024-01-20T08:16:41.981Z,1.51
2024-01-20T08:17:44.296Z,1.51
2024-01-20T08:18:42.081Z,1.52
2024-01-20T08:19:42.093Z,1.51
2024-01-20T08:20:41.946Z,1.51
2024-01-20T08:21:42.143Z,1.49
2024-01-20T08:22:49.689Z,1.52
2024-01-20T08:23:42.361Z,1.54
2024-01-20T08:24:42.020Z,1.54
2024-01-20T08:25:42.014Z,1.54
2024-01-20T08:26:42.121Z,1.54
2024-01-20T08:27:42.065Z,1.56
2024-01-20T08:28:42.186Z,1.58
2024-01-20T08:29:50.543Z,1.61
2024-01-20T08:30:42.063Z,1.65
2024-01-20T08:31:41.932Z,1.67
2024-01-20T08:32:41.950Z,1.66
2024-01-20T08:33:41.911Z,1.67
2024-01-20T08:34:41.862Z,1.69
2024-01-20T08:35:41.801Z,1.67
2024-01-20T08:36:41.942Z,1.70
2024-01-20T08:37:41.988Z,1.70
2024-01-20T08:38:41.870Z,1.72
2024-01-20T08:39:41.964Z,1.72
2024-01-20T08:40:42.275Z,1.76
2024-01-20T08:41:41.793Z,1.77
2024-01-20T08:44:11.449Z,1.83
2024-01-20T08:45:12.391Z,1.85
2024-01-20T08:46:13.604Z,1.85
2024-01-20T08:47:12.146Z,1.87
2024-01-20T08:48:12.333Z,1.87
2024-01-20T08:49:12.047Z,1.88
2024-01-20T08:50:12.067Z,1.90
2024-01-20T08:51:12.044Z,1.92
2024-01-20T08:52:13.256Z,1.87
2024-01-20T08:53:12.145Z,1.88
2024-01-20T08:54:20.049Z,1.91
2024-01-20T08:55:12.108Z,1.92
2024-01-20T08:56:12.042Z,1.90
2024-01-20T08:57:12.078Z,1.92
2024-01-20T08:58:12.324Z,1.90
2024-01-20T08:59:12.037Z,1.91
2024-01-20T09:00:12.177Z,1.94
2024-01-20T09:01:11.999Z,1.95
2024-01-20T09:02:12.088Z,1.95
2024-01-20T09:03:11.995Z,1.98
2024-01-20T09:04:12.080Z,1.98
2024-01-20T09:05:11.978Z,1.99
2024-01-20T09:06:11.908Z,2.03
2024-01-20T09:07:12.008Z,2.04
2024-01-20T09:08:11.846Z,2.07
2024-01-20T09:09:11.935Z,2.10
2024-01-20T09:10:19.749Z,2.10
2024-01-20T09:11:20.582Z,2.14
2024-01-20T09:12:12.194Z,2.20
2024-01-20T09:13:19.255Z,2.21
2024-01-20T09:14:20.488Z,2.24
2024-01-20T09:15:11.837Z,2.24
2024-01-20T09:16:18.566Z,2.22
2024-01-20T09:17:11.944Z,2.24
2024-01-20T09:18:12.565Z,2.22
2024-01-20T09:19:11.852Z,2.21
2024-01-20T09:20:11.912Z,2.21
2024-01-20T09:21:19.974Z,2.24
2024-01-20T09:22:11.821Z,2.27
2024-01-20T09:23:11.854Z,2.31
2024-01-20T09:24:18.558Z,2.32
2024-01-20T09:26:21.644Z,2.32
2024-01-20T09:27:22.572Z,2.31
2024-01-20T09:28:22.536Z,2.32
2024-01-20T09:29:22.524Z,2.32
2024-01-20T09:30:22.536Z,2.29
2024-01-20T09:31:22.784Z,2.31
2024-01-20T09:32:22.474Z,2.31
2024-01-20T09:33:22.577Z,2.34
2024-01-20T09:34:22.516Z,2.32
2024-01-20T09:35:22.439Z,2.31
2024-01-20T09:36:22.451Z,2.34
2024-01-20T09:37:22.436Z,2.34
2024-01-20T09:38:22.417Z,2.35
2024-01-20T09:39:22.437Z,2.39
2024-01-20T09:40:22.382Z,2.39
2024-01-20T09:41:22.384Z,2.42
2024-01-20T09:42:22.406Z,2.39
2024-01-20T09:43:22.351Z,2.40
2024-01-20T09:44:22.368Z,2.43
2024-01-20T09:45:22.381Z,2.40
2024-01-20T09:46:22.325Z,2.40
2024-01-20T09:47:22.492Z,2.35
2024-01-20T09:48:22.457Z,2.35
2024-01-20T09:49:22.393Z,2.34
2024-01-20T09:50:22.290Z,2.35
2024-01-20T09:51:22.339Z,2.35
2024-01-20T09:52:22.258Z,2.34
2024-01-20T09:53:22.294Z,2.29
2024-01-20T09:54:22.331Z,2.28
2024-01-20T09:55:22.253Z,2.27
2024-01-20T09:56:22.221Z,2.28
2024-01-20T09:57:22.258Z,2.28
2024-01-20T09:58:22.235Z,2.27
2024-01-20T09:59:22.176Z,2.31
2024-01-20T10:00:22.249Z,2.32
2024-01-20T10:01:22.177Z,2.35
2024-01-20T10:02:22.154Z,2.35
2024-01-20T10:03:22.276Z,2.37
2024-01-20T10:04:22.183Z,2.40
2024-01-20T10:05:22.178Z,2.43
2024-01-20T10:06:22.267Z,2.43
2024-01-20T10:07:22.092Z,2.43
2024-01-20T10:08:22.074Z,2.42
2024-01-20T10:09:22.136Z,2.43
2024-01-20T10:10:22.046Z,2.45
2024-01-20T10:11:22.049Z,2.45
2024-01-20T10:12:22.067Z,2.45
2024-01-20T10:13:22.039Z,2.47
2024-01-20T10:14:22.057Z,2.53
2024-01-20T10:15:22.057Z,2.55
2024-01-20T10:16:21.994Z,2.60
2024-01-20T10:17:22.004Z,2.60
2024-01-20T10:18:22.068Z,2.63
2024-01-20T10:19:21.957Z,2.60
2024-01-20T10:20:21.955Z,2.60
2024-01-20T10:21:21.937Z,2.64
2024-01-20T10:22:21.936Z,2.67
2024-01-20T10:23:21.908Z,2.70
2024-01-20T10:24:21.935Z,2.68
2024-01-20T10:25:21.944Z,2.70
2024-01-20T10:26:21.896Z,2.73
2024-01-20T10:27:21.917Z,2.73
2024-01-20T10:28:21.870Z,2.73
2024-01-20T10:29:21.854Z,2.79
2024-01-20T10:30:22.036Z,2.81
2024-01-20T10:31:21.851Z,2.82
2024-01-20T10:32:21.882Z,2.85
2024-01-20T10:33:21.876Z,2.83
2024-01-20T10:34:21.940Z,2.86
2024-01-20T10:35:21.960Z,2.88
2024-01-20T10:36:21.836Z,2.96
2024-01-20T10:37:21.809Z,3.01
2024-01-20T10:38:21.793Z,3.03
2024-01-20T10:39:21.806Z,3.01
2024-01-20T10:40:21.769Z,2.97
2024-01-20T10:41:21.761Z,3.03
2024-01-20T10:42:21.786Z,3.10
2024-01-20T10:43:21.719Z,3.15
2024-01-20T10:44:21.701Z,3.17
2024-01-20T10:45:21.734Z,3.22
2024-01-20T10:46:21.719Z,3.21
2024-01-20T10:47:21.697Z,3.24
2024-01-20T10:48:21.813Z,3.28
2024-01-20T10:49:21.765Z,3.29
2024-01-20T10:50:21.664Z,3.21
2024-01-20T10:51:21.673Z,3.18
2024-01-20T10:52:21.639Z,3.21
2024-01-20T10:53:21.637Z,3.22
2024-01-20T10:54:21.634Z,3.29
2024-01-20T10:55:21.623Z,3.27
2024-01-20T10:56:21.585Z,3.24
2024-01-20T10:57:21.634Z,3.19
2024-01-20T10:58:21.584Z,3.18
2024-01-20T10:59:21.689Z,3.10
2024-01-20T11:00:21.637Z,3.07
2024-01-20T11:01:21.613Z,3.10
2024-01-20T11:02:21.533Z,3.10
2024-01-20T11:03:21.565Z,3.14
2024-01-20T11:04:21.702Z,3.18
2024-01-20T11:05:21.495Z,3.21
2024-01-20T11:06:21.883Z,3.21
2024-01-20T11:07:21.518Z,3.18
2024-01-20T11:08:21.466Z,3.17
2024-01-20T11:09:21.511Z,3.15
2024-01-20T11:10:21.473Z,3.12
2024-01-20T11:11:21.443Z,3.12
2024-01-20T11:12:21.489Z,3.09
2024-01-20T11:13:21.443Z,3.00
2024-01-20T11:14:21.569Z,3.01
2024-01-20T11:15:21.444Z,3.00
2024-01-20T11:16:21.386Z,3.04
2024-01-20T11:17:21.401Z,3.07
2024-01-20T11:18:21.479Z,3.09
2024-01-20T11:19:21.393Z,3.07
2024-01-20T11:20:21.365Z,3.12
2024-01-20T11:21:21.411Z,3.09
2024-01-20T11:22:21.390Z,3.10
2024-01-20T11:23:21.313Z,3.14
2024-01-20T11:24:21.343Z,3.12
2024-01-20T11:25:21.293Z,3.14
2024-01-20T11:26:21.293Z,3.17
2024-01-20T11:27:21.342Z,3.19
2024-01-20T11:28:21.335Z,3.25
2024-01-20T11:29:21.263Z,3.25
2024-01-20T11:30:21.263Z,3.24
2024-01-20T11:31:21.326Z,3.21
2024-01-20T11:32:21.215Z,3.22
2024-01-20T11:33:21.462Z,3.22
2024-01-20T11:34:21.301Z,3.21
2024-01-20T11:35:21.228Z,3.21
2024-01-20T11:36:21.351Z,3.17
2024-01-20T11:37:21.177Z,3.15
2024-01-20T11:38:21.193Z,3.18
2024-01-20T11:39:21.228Z,3.18
2024-01-20T11:40:21.132Z,3.17
2024-01-20T11:41:21.208Z,3.21
2024-01-20T11:42:21.170Z,3.18
2024-01-20T11:43:21.105Z,3.27
2024-01-20T11:44:21.172Z,3.32
2024-01-20T11:45:21.126Z,3.32
2024-01-20T11:46:21.093Z,3.27
2024-01-20T11:47:21.074Z,3.27
2024-01-20T11:48:21.158Z,3.28
2024-01-20T11:49:21.175Z,3.32
2024-01-20T11:50:21.068Z,3.32
2024-01-20T11:51:21.114Z,3.32
2024-01-20T11:52:21.013Z,3.40
2024-01-20T11:53:21.019Z,3.33
2024-01-20T11:54:21.096Z,3.28
2024-01-20T11:55:21.012Z,3.28
2024-01-20T11:56:20.988Z,3.36
2024-01-20T11:57:21.014Z,3.37
2024-01-20T11:58:20.960Z,3.41
2024-01-20T11:59:20.961Z,3.43
2024-01-20T12:00:21.033Z,3.51
2024-01-20T12:01:20.995Z,3.48
2024-01-20T12:02:20.927Z,3.54
2024-01-20T12:03:20.930Z,3.54
2024-01-20T12:04:20.949Z,3.51
2024-01-20T12:05:21.012Z,3.43
2024-01-20T12:06:20.989Z,3.43
2024-01-20T12:07:20.931Z,3.37
2024-01-20T12:08:20.842Z,3.43
2024-01-20T12:09:20.842Z,3.48
2024-01-20T12:10:21.039Z,3.54
2024-01-20T12:11:20.828Z,3.55
2024-01-20T12:12:20.855Z,3.51
2024-01-20T12:13:20.800Z,3.56
2024-01-20T12:14:20.796Z,3.58
2024-01-20T12:15:20.837Z,3.56
2024-01-20T12:16:20.810Z,3.58
2024-01-20T12:17:20.751Z,3.55
2024-01-20T12:18:20.889Z,3.55
2024-01-20T12:19:20.906Z,3.55
2024-01-20T12:20:20.725Z,3.59
2024-01-20T12:21:20.750Z,3.68
2024-01-20T12:22:20.691Z,3.65
2024-01-20T12:23:20.696Z,3.66
2024-01-20T12:24:20.721Z,3.73
2024-01-20T12:25:20.711Z,3.70
2024-01-20T12:26:20.689Z,3.65
2024-01-20T12:27:20.681Z,3.66
2024-01-20T12:28:20.665Z,3.73
2024-01-20T12:29:20.649Z,3.68
2024-01-20T12:30:20.651Z,3.65
2024-01-20T12:31:22.796Z,3.68
2024-01-20T12:32:20.598Z,3.70
2024-01-20T12:33:20.704Z,3.68
2024-01-20T12:34:20.670Z,3.72
2024-01-20T12:35:20.604Z,3.82
2024-01-20T12:36:20.621Z,3.82
2024-01-20T12:37:20.607Z,3.80
2024-01-20T12:38:20.544Z,3.74
2024-01-20T12:39:20.567Z,3.74
2024-01-20T12:40:20.520Z,3.72
2024-01-20T12:41:20.504Z,3.70
2024-01-20T12:42:20.520Z,3.70
2024-01-20T12:43:20.472Z,3.70
2024-01-20T12:44:20.474Z,3.68
2024-01-20T12:45:20.491Z,3.68
2024-01-20T12:46:20.478Z,3.70
2024-01-20T12:47:20.450Z,3.70
2024-01-20T12:48:20.589Z,3.65
2024-01-20T12:49:20.570Z,3.65
2024-01-20T12:50:20.406Z,3.68
2024-01-20T12:51:20.408Z,3.72
2024-01-20T12:52:20.413Z,3.72
2024-01-20T12:53:20.383Z,3.73
2024-01-20T12:54:20.408Z,3.70
2024-01-20T12:55:20.374Z,3.70
2024-01-20T12:56:20.339Z,3.74
2024-01-20T12:57:20.436Z,3.74
2024-01-20T12:58:20.314Z,3.77
2024-01-20T12:59:20.337Z,3.79
2024-01-20T13:00:20.364Z,3.76
2024-01-20T13:01:20.321Z,3.72
2024-01-20T13:02:20.266Z,3.70
2024-01-20T13:03:20.311Z,3.68
2024-01-20T13:04:20.270Z,3.62
2024-01-20T13:05:20.485Z,3.61
2024-01-20T13:06:20.319Z,3.55
2024-01-20T13:07:20.469Z,3.54
2024-01-20T13:08:20.202Z,3.48
2024-01-20T13:09:20.223Z,3.46
2024-01-20T13:10:20.198Z,3.46
2024-01-20T13:11:20.177Z,3.44
2024-01-20T13:12:20.146Z,3.44
2024-01-20T13:13:20.186Z,3.41
2024-01-20T13:14:20.199Z,3.37
2024-01-20T13:15:20.246Z,3.35
2024-01-20T13:16:20.262Z,3.33
2024-01-20T13:17:20.122Z,3.32
2024-01-20T13:18:20.270Z,3.27
2024-01-20T13:19:20.267Z,3.28
2024-01-20T13:20:20.050Z,3.27
2024-01-20T13:21:20.102Z,3.24
2024-01-20T13:22:20.048Z,3.22
2024-01-20T13:23:20.083Z,3.21
2024-01-20T13:24:20.116Z,3.22
2024-01-20T13:25:20.098Z,3.22
2024-01-20T13:26:19.994Z,3.24
2024-01-20T13:27:20.018Z,3.22
2024-01-20T13:28:20.058Z,3.24
2024-01-20T13:29:19.982Z,3.27
2024-01-20T13:30:20.034Z,3.28
2024-01-20T13:31:19.962Z,3.28
2024-01-20T13:32:20.013Z,3.32
2024-01-20T13:33:20.151Z,3.37
2024-01-20T13:34:20.110Z,3.33
2024-01-20T13:35:19.893Z,3.35
2024-01-20T13:36:20.023Z,3.36
2024-01-20T13:37:22.142Z,3.33
2024-01-20T13:38:19.872Z,3.33
2024-01-20T13:39:20.081Z,3.33
2024-01-20T13:40:19.879Z,3.36
2024-01-20T13:41:19.874Z,3.36
2024-01-20T13:42:19.877Z,3.37
2024-01-20T13:43:19.807Z,3.41
2024-01-20T13:44:19.815Z,3.43
2024-01-20T13:45:19.855Z,3.46
2024-01-20T13:46:19.783Z,3.46
2024-01-20T13:47:19.791Z,3.46
2024-01-20T13:48:20.021Z,3.47
2024-01-20T13:49:19.928Z,3.48
2024-01-20T13:50:19.830Z,3.52
2024-01-20T13:51:19.780Z,3.54
2024-01-20T13:52:19.730Z,3.52
2024-01-20T13:53:19.705Z,3.55
2024-01-20T13:54:19.806Z,3.56
2024-01-20T13:55:19.698Z,3.58
2024-01-20T13:56:19.683Z,3.59
2024-01-20T13:57:19.678Z,3.59
2024-01-20T13:58:19.672Z,3.61
2024-01-20T13:59:19.652Z,3.58
2024-01-20T14:00:19.720Z,3.58
2024-01-20T14:01:19.666Z,3.58
2024-01-20T14:02:19.624Z,3.58
2024-01-20T14:03:19.711Z,3.56
2024-01-20T14:04:19.746Z,3.58